Time;durP1;ratioP1;P1;durP2;ratioP2;P2;SDS_P1;SDS_P2;PMS_P1;PMS_P2;Temp;Humidity;BMP_temperature;BMP_pressure;BME280_temperature;BME280_humidity;BME280_pressure;Samples;Min_cycle;Max_cycle;Signal;HPM_P1;HPM_P2
2022/04/23 00:00:27;;;;;;;31.08;19.00;;;;;;;4.74;68.46;97733.97;5096245;28;20111;-80
2022/04/23 00:02:53;;;;;;;37.63;21.35;;;;;;;4.69;68.51;97733.19;5093013;28;20492;-80
2022/04/23 00:05:19;;;;;;;44.08;24.42;;;;;;;4.66;68.25;97728.28;5093327;28;20016;-80
2022/04/23 00:07:44;;;;;;;49.70;26.95;;;;;;;4.59;68.72;97726.66;5093404;28;20375;-80
2022/04/23 00:10:10;;;;;;;45.78;24.77;;;;;;;4.57;68.38;97725.34;5093589;28;20050;-79
2022/04/23 00:12:36;;;;;;;41.72;23.58;;;;;;;4.56;69.16;97726.41;5091844;28;20020;-80
2022/04/23 00:15:02;;;;;;;39.00;22.27;;;;;;;4.54;69.32;97726.69;5092842;28;20031;-80
2022/04/23 00:17:28;;;;;;;38.60;21.20;;;;;;;4.53;68.89;97719.63;5093216;28;20032;-80
2022/04/23 00:19:53;;;;;;;34.60;20.45;;;;;;;4.54;69.28;97732.09;5092544;28;20474;-80
2022/04/23 00:22:19;;;;;;;35.53;20.90;;;;;;;4.54;69.49;97723.97;5092777;28;20099;-80
2022/04/23 00:24:44;;;;;;;36.45;20.83;;;;;;;4.55;69.45;97722.88;5092684;28;20115;-80
2022/04/23 00:27:10;;;;;;;38.20;20.83;;;;;;;4.52;69.45;97728.84;5091079;28;20505;-79
2022/04/23 00:29:35;;;;;;;38.60;22.50;;;;;;;4.51;69.66;97729.94;5087875;28;20077;-80
2022/04/23 00:32:02;;;;;;;43.83;23.02;;;;;;;4.48;69.04;97722.38;5092907;28;20478;-80
2022/04/23 00:34:28;;;;;;;45.17;24.33;;;;;;;4.42;69.71;97721.53;5090971;28;21880;-80
2022/04/23 00:36:54;;;;;;;51.55;26.85;;;;;;;4.35;69.78;97720.22;5090992;28;20020;-80
2022/04/23 00:39:19;;;;;;;58.95;28.63;;;;;;;4.28;69.39;97721.28;5093058;28;20024;-80
2022/04/23 00:41:46;;;;;;;64.97;30.88;;;;;;;4.23;69.87;97715.88;5092961;28;20040;-79
2022/04/23 00:44:12;;;;;;;67.03;30.23;;;;;;;4.17;70.09;97720.50;5092209;28;20028;-80
2022/04/23 00:46:38;;;;;;;62.58;28.45;;;;;;;4.16;70.35;97718.88;5092802;28;20082;-80
2022/04/23 00:49:05;;;;;;;56.03;26.42;;;;;;;4.14;69.88;97715.63;5093242;28;20028;-80
2022/04/23 00:51:32;;;;;;;50.97;25.90;;;;;;;4.13;70.35;97724.84;5092916;28;20042;-80
2022/04/23 00:54:01;;;;;;;43.15;23.50;;;;;;;4.10;70.63;97721.84;5092386;28;20024;-80
2022/04/23 00:56:26;;;;;;;39.83;21.58;;;;;;;4.08;69.97;97719.41;5092959;28;20024;-80
2022/04/23 00:58:52;;;;;;;35.38;20.13;;;;;;;4.06;70.18;97710.72;5092507;28;20027;-80
2022/04/23 01:01:23;;;;;;;40.97;22.00;;;;;;;4.09;70.12;97720.22;5092718;28;20059;-80
2022/04/23 01:03:49;;;;;;;36.83;21.20;;;;;;;4.10;70.40;97719.13;5092418;28;20496;-80
2022/04/23 01:06:16;;;;;;;35.95;20.70;;;;;;;4.11;70.42;97716.16;5092717;28;20021;-80
2022/04/23 01:08:41;;;;;;;35.63;20.33;;;;;;;4.11;71.31;97712.63;5092700;28;20127;-80
2022/04/23 01:11:07;;;;;;;36.83;21.88;;;;;;;4.16;70.53;97718.88;5092444;28;20151;-80
2022/04/23 01:13:33;;;;;;;35.88;20.92;;;;;;;4.22;71.48;97722.38;5091914;28;20085;-80
2022/04/23 01:16:07;;;;;;;41.85;23.35;;;;;;;4.29;71.34;97719.38;5092455;28;20089;-80
2022/04/23 01:18:34;;;;;;;38.30;22.17;;;;;;;4.40;71.33;97720.22;5091973;28;20028;-82
2022/04/23 01:21:04;;;;;;;38.13;21.73;;;;;;;4.50;70.45;97722.09;5092431;28;20414;-80
2022/04/23 01:23:30;;;;;;;37.60;22.33;;;;;;;4.55;70.82;97724.78;5091666;28;20570;-80
2022/04/23 01:25:57;;;;;;;37.88;21.33;;;;;;;4.59;70.64;97720.44;5090780;28;20079;-80
2022/04/23 01:28:24;;;;;;;36.67;22.50;;;;;;;4.60;70.81;97724.78;5091750;28;20031;-80
2022/04/23 01:30:50;;;;;;;40.40;22.95;;;;;;;4.65;71.31;97721.22;5091380;28;20036;-80
2022/04/23 01:33:17;;;;;;;35.97;21.27;;;;;;;4.70;71.17;97721.22;5091392;28;20040;-80
2022/04/23 01:35:43;;;;;;;37.00;21.83;;;;;;;4.69;71.15;97720.38;5091939;28;20028;-80
2022/04/23 01:38:09;;;;;;;36.05;21.25;;;;;;;4.66;70.30;97718.25;5090261;28;20031;-80
2022/04/23 01:40:35;;;;;;;37.97;22.63;;;;;;;4.67;70.92;97719.88;5086508;28;20024;-80
2022/04/23 01:43:00;;;;;;;35.83;20.95;;;;;;;4.73;71.52;97724.19;5090926;28;20537;-80
2022/04/23 01:45:26;;;;;;;35.75;20.90;;;;;;;4.75;71.47;97713.84;5089381;28;20040;-80
2022/04/23 01:47:51;;;;;;;39.67;21.02;;;;;;;4.77;71.04;97716.31;5091739;28;20513;-80
2022/04/23 01:50:17;;;;;;;36.15;21.02;;;;;;;4.72;70.68;97717.13;5087201;28;20032;-80
2022/04/23 01:52:42;;;;;;;32.70;19.67;;;;;;;4.68;71.64;97721.50;5089130;28;20114;-80
2022/04/23 01:55:09;;;;;;;33.20;20.02;;;;;;;4.63;71.25;97718.81;5089260;28;20024;-80
2022/04/23 01:57:34;;;;;;;36.17;20.05;;;;;;;4.59;70.47;97725.88;5090757;28;20555;-80
2022/04/23 02:00:00;;;;;;;30.33;19.42;;;;;;;4.50;70.91;97717.44;5091106;28;20024;-80
2022/04/23 02:02:25;;;;;;;37.15;20.05;;;;;;;4.43;71.03;97715.03;5091327;28;20481;-80
2022/04/23 02:04:50;;;;;;;35.38;21.25;;;;;;;4.36;70.06;97719.91;5091043;28;20031;-81
2022/04/23 02:07:16;;;;;;;34.00;20.02;;;;;;;4.30;70.97;97727.28;5091122;28;20030;-80
2022/04/23 02:09:41;;;;;;;34.08;19.98;;;;;;;4.28;71.08;97734.06;5091352;28;20072;-81
2022/04/23 02:12:07;;;;;;;33.05;19.20;;;;;;;4.27;71.05;97727.00;5089231;28;20069;-81
2022/04/23 02:14:33;;;;;;;31.42;18.75;;;;;;;4.26;71.92;97728.09;5089636;28;20028;-81
2022/04/23 02:16:58;;;;;;;32.78;18.15;;;;;;;4.26;71.37;97725.38;5090013;28;20427;-81
2022/04/23 02:19:24;;;;;;;28.58;17.35;;;;;;;4.26;71.77;97737.03;5089911;28;20036;-81
2022/04/23 02:21:50;;;;;;;28.90;18.00;;;;;;;4.22;71.26;97735.16;5091953;28;20028;-80
2022/04/23 02:24:16;;;;;;;30.95;18.75;;;;;;;4.16;72.00;97737.88;5090384;28;20024;-81
2022/04/23 02:26:41;;;;;;;31.17;17.90;;;;;;;4.15;71.29;97730.81;5089999;28;20377;-81
2022/04/23 02:29:07;;;;;;;35.33;20.48;;;;;;;4.13;71.42;97741.13;5090831;28;20465;-80
2022/04/23 02:31:32;;;;;;;36.95;20.23;;;;;;;4.13;70.63;97743.00;5091464;28;20020;-80
2022/04/23 02:33:57;;;;;;;33.17;18.80;;;;;;;4.10;71.40;97738.13;5088890;28;20031;-80
2022/04/23 02:36:24;;;;;;;31.88;18.17;;;;;;;3.97;71.50;97734.06;5089679;28;20032;-81
2022/04/23 02:38:52;;;;;;;31.38;17.48;;;;;;;3.91;70.92;97746.00;5083371;28;20020;-80
2022/04/23 02:41:18;;;;;;;30.13;17.83;;;;;;;3.87;71.59;97746.53;5087013;28;20055;-80
2022/04/23 02:43:45;;;;;;;32.95;19.13;;;;;;;3.81;71.53;97746.78;5091481;28;20645;-80
2022/04/23 02:46:15;;;;;;;31.20;18.15;;;;;;;3.76;71.35;97754.94;5094948;28;20052;-81
2022/04/23 02:48:41;;;;;;;32.33;18.73;;;;;;;3.67;70.52;97743.81;5093747;28;20032;-81
2022/04/23 02:51:06;;;;;;;32.92;19.00;;;;;;;3.60;71.54;97749.50;5094498;28;20097;-80
2022/04/23 02:53:32;;;;;;;30.65;18.45;;;;;;;3.53;71.32;97757.06;5094352;28;20073;-80
2022/04/23 02:55:57;;;;;;;30.50;18.90;;;;;;;3.50;70.70;97754.88;5092775;28;20034;-80
2022/04/23 02:58:25;;;;;;;29.95;17.80;;;;;;;3.48;71.79;97760.56;5093353;28;20182;-80
2022/04/23 03:00:52;;;;;;;40.95;22.30;;;;;;;3.45;71.60;97763.84;5092347;28;20032;-82
2022/04/23 03:03:18;;;;;;;162.70;54.05;;;;;;;3.44;71.13;97756.78;5093270;28;20386;-81
2022/04/23 03:05:44;;;;;;;92.35;36.88;;;;;;;3.46;71.15;97749.19;5085543;28;20047;-82
2022/04/23 03:08:11;;;;;;;239.00;86.72;;;;;;;3.47;71.68;97742.66;5093814;28;20036;-82
2022/04/23 03:10:39;;;;;;;104.05;40.50;;;;;;;3.46;71.59;97751.06;5093180;28;20036;-82
2022/04/23 03:13:05;;;;;;;243.25;77.03;;;;;;;3.49;71.66;97754.06;5090224;28;20116;-81
2022/04/23 03:15:30;;;;;;;407.60;135.27;;;;;;;3.49;72.02;97750.53;5088742;28;20127;-81
2022/04/23 03:18:08;;;;;;;216.88;76.32;;;;;;;3.46;70.98;97751.06;5094115;28;20059;-81
2022/04/23 03:20:34;;;;;;;245.73;90.20;;;;;;;3.41;71.55;97754.59;5093650;28;20065;-81
2022/04/23 03:23:00;;;;;;;133.52;51.55;;;;;;;3.36;71.19;97758.09;5093684;28;20068;-81
2022/04/23 03:25:26;;;;;;;70.22;31.85;;;;;;;3.34;71.59;97773.81;5089182;28;20442;-81
2022/04/23 03:27:51;;;;;;;51.30;24.80;;;;;;;3.30;71.42;97767.28;5088613;28;20024;-81
2022/04/23 03:30:20;;;;;;;41.20;21.63;;;;;;;3.27;72.09;97782.19;5092255;28;20028;-81
2022/04/23 03:32:46;;;;;;;35.55;18.85;;;;;;;3.23;72.13;97775.66;5095194;28;20058;-81
2022/04/23 03:35:11;;;;;;;46.83;24.67;;;;;;;3.09;71.78;97769.94;5093049;28;20085;-81
2022/04/23 03:37:41;;;;;;;35.67;20.42;;;;;;;3.03;71.99;97776.41;5089155;28;20028;-81
2022/04/23 03:40:11;;;;;;;33.63;18.88;;;;;;;2.98;72.71;97784.50;5090275;28;20028;-81
2022/04/23 03:42:36;;;;;;;30.13;16.05;;;;;;;2.91;71.53;97786.63;5093092;28;20111;-80
2022/04/23 03:45:04;;;;;;;30.42;18.08;;;;;;;2.85;72.05;97783.06;5090671;28;20484;-81
2022/04/23 03:47:31;;;;;;;25.73;15.38;;;;;;;2.79;72.41;97784.94;5091060;28;20028;-81
2022/04/23 03:49:57;;;;;;;36.75;17.45;;;;;;;2.75;71.80;97793.84;5093630;28;20389;-81
2022/04/23 03:52:22;;;;;;;38.10;19.58;;;;;;;2.73;72.60;97796.00;5091467;28;20024;-81
2022/04/23 03:54:47;;;;;;;40.92;20.15;;;;;;;2.69;72.64;97790.28;5091796;28;20020;-81
2022/04/23 03:57:13;;;;;;;36.45;19.30;;;;;;;2.69;72.21;97793.00;5092584;28;20024;-81
2022/04/23 03:59:38;;;;;;;31.67;18.45;;;;;;;2.63;72.25;97791.34;5090962;28;20028;-80
2022/04/23 04:02:07;;;;;;;38.08;21.38;;;;;;;2.57;72.51;97804.03;5093674;28;20032;-79
2022/04/23 04:04:33;;;;;;;35.30;20.95;;;;;;;2.50;72.12;97789.91;5091191;28;20355;-81
2022/04/23 04:07:02;;;;;;;33.58;19.15;;;;;;;2.48;71.92;97797.47;5092438;28;20028;-80
2022/04/23 04:09:28;;;;;;;28.93;17.03;;;;;;;2.41;71.99;97791.44;5091941;28;20478;-81
2022/04/23 04:12:02;;;;;;;29.45;18.45;;;;;;;2.36;71.61;97792.25;5091317;28;20339;-81
2022/04/23 04:14:32;;;;;;;34.30;19.67;;;;;;;2.33;71.82;97790.06;5092227;28;20063;-81
2022/04/23 04:17:03;;;;;;;;;;;;;;;2.42;72.54;97793.09;5090307;28;20107;-81
2022/04/23 04:19:32;;;;;;;24.67;14.93;;;;;;;2.43;72.35;97789.31;5090092;28;19920;-81
2022/04/23 04:21:58;;;;;;;30.45;16.63;;;;;;;2.43;73.25;97797.41;5093199;28;20032;-81
2022/04/23 04:24:26;;;;;;;27.73;17.38;;;;;;;2.38;72.20;97796.31;5090841;28;20081;-81
2022/04/23 04:26:52;;;;;;;28.02;17.23;;;;;;;2.35;72.70;97799.53;5091624;28;20028;-81
2022/04/23 04:29:18;;;;;;;29.02;16.77;;;;;;;2.35;72.04;97796.81;5090452;28;20024;-81
2022/04/23 04:31:50;;;;;;;26.50;16.23;;;;;;;2.37;72.44;97791.97;5089939;28;20049;-81
2022/04/23 04:34:29;;;;;;;27.20;16.17;;;;;;;2.41;72.36;97797.69;5091004;28;20047;-81
2022/04/23 04:37:11;;;;;;;25.00;16.08;;;;;;;2.47;72.35;97806.66;5091927;28;20393;-81
2022/04/23 04:39:38;;;;;;;32.42;18.75;;;;;;;2.56;72.42;97798.88;5089679;28;20393;-81
2022/04/23 04:42:04;;;;;;;45.92;23.80;;;;;;;2.61;72.21;97807.03;5091652;28;20058;-81
2022/04/23 04:44:30;;;;;;;52.47;26.60;;;;;;;2.72;72.84;97805.19;5090397;28;20028;-80
2022/04/23 04:46:55;;;;;;;66.20;32.95;;;;;;;2.81;72.96;97811.75;5091842;28;20063;-81
2022/04/23 04:49:23;;;;;;;58.83;32.45;;;;;;;2.85;73.28;97817.47;5089604;28;20061;-81
2022/04/23 04:51:50;;;;;;;42.13;25.00;;;;;;;2.90;72.39;97812.91;5090906;28;20481;-82
2022/04/23 04:54:18;;;;;;;40.85;24.15;;;;;;;2.95;72.80;97820.22;5091821;28;20040;-81
2022/04/23 04:56:51;;;;;;;34.50;21.85;;;;;;;2.96;72.80;97819.16;5088188;28;20108;-80
2022/04/23 04:59:17;;;;;;;32.33;19.15;;;;;;;3.00;72.79;97808.63;5090140;28;20088;-80
2022/04/23 05:01:43;;;;;;;31.77;19.63;;;;;;;3.04;72.31;97809.72;5092999;28;20470;-80
2022/04/23 05:04:08;;;;;;;29.92;18.23;;;;;;;3.07;72.13;97809.19;5092066;28;20040;-80
2022/04/23 05:06:34;;;;;;;31.83;20.13;;;;;;;3.08;72.72;97810.81;5091745;28;20024;-80
2022/04/23 05:08:59;;;;;;;29.38;18.38;;;;;;;3.09;72.21;97807.84;5092983;28;20161;-81
2022/04/23 05:11:25;;;;;;;31.65;19.35;;;;;;;3.15;72.96;97811.41;5093058;28;20031;-81
2022/04/23 05:13:51;;;;;;;31.85;18.58;;;;;;;3.20;72.73;97822.25;5092085;28;20031;-80
2022/04/23 05:16:17;;;;;;;37.58;20.73;;;;;;;3.22;72.27;97816.59;5092687;28;20477;-80
2022/04/23 05:18:43;;;;;;;34.53;20.00;;;;;;;3.21;72.25;97809.53;5092522;28;20385;-80
2022/04/23 05:21:08;;;;;;;33.35;19.58;;;;;;;3.24;72.36;97811.72;5090371;28;20032;-80
2022/04/23 05:23:34;;;;;;;35.78;19.92;;;;;;;3.26;72.33;97813.09;5088310;28;20493;-83
2022/04/23 05:26:00;;;;;;;36.00;20.13;;;;;;;3.28;72.16;97812.81;5086383;28;20035;-80
2022/04/23 05:28:25;;;;;;;40.80;22.17;;;;;;;3.32;72.44;97819.31;5090598;28;20534;-81
2022/04/23 05:30:51;;;;;;;34.15;19.52;;;;;;;3.46;72.69;97816.13;5090632;28;20035;-81
2022/04/23 05:33:16;;;;;;;32.08;19.70;;;;;;;3.57;72.44;97809.69;5091319;28;20032;-80
2022/04/23 05:35:42;;;;;;;33.30;19.75;;;;;;;3.68;73.01;97816.75;5087771;28;20367;-80
2022/04/23 05:38:07;;;;;;;32.45;19.75;;;;;;;3.77;72.74;97810.81;5089781;28;20028;-80
2022/04/23 05:40:33;;;;;;;32.35;19.45;;;;;;;3.85;73.52;97813.00;5087130;28;20028;-81
2022/04/23 05:42:59;;;;;;;43.55;22.65;;;;;;;3.95;73.19;97817.63;5091727;28;20028;-80
2022/04/23 05:45:29;;;;;;;53.70;27.05;;;;;;;4.05;73.14;97820.34;5087500;28;20041;-80
2022/04/23 05:47:55;;;;;;;;;;;;;;;4.13;73.22;97819.81;5092039;28;20115;-81
2022/04/23 05:50:20;;;;;;;61.42;28.00;;;;;;;4.24;72.67;97815.22;5090776;28;19995;-81
2022/04/23 05:52:46;;;;;;;48.78;25.23;;;;;;;4.33;72.91;97826.34;5087474;28;20024;-81
2022/04/23 05:55:12;;;;;;;50.15;25.85;;;;;;;4.40;73.35;97826.91;5089891;28;20107;-81
2022/04/23 05:57:38;;;;;;;44.42;24.33;;;;;;;4.50;73.15;97817.91;5085722;28;20355;-81
2022/04/23 06:00:06;;;;;;;39.10;21.38;;;;;;;4.61;72.94;97829.63;5089520;28;20386;-81
2022/04/23 06:02:31;;;;;;;43.97;24.13;;;;;;;4.70;72.60;97822.53;5087252;28;20454;-81
2022/04/23 06:04:58;;;;;;;41.35;22.55;;;;;;;4.81;72.88;97823.34;5084675;28;20055;-82
2022/04/23 06:07:23;;;;;;;38.40;22.48;;;;;;;4.90;72.32;97829.84;5084710;28;20032;-81
2022/04/23 06:09:49;;;;;;;36.33;21.75;;;;;;;5.02;72.94;97826.84;5091420;28;20032;-82
2022/04/23 06:12:14;;;;;;;33.40;20.30;;;;;;;5.12;72.68;97836.03;5090567;28;20099;-81
2022/04/23 06:14:39;;;;;;;36.05;21.45;;;;;;;5.20;72.45;97832.75;5091015;28;20032;-81
2022/04/23 06:17:10;;;;;;;37.65;22.10;;;;;;;5.30;72.35;97832.72;5091327;28;20027;-81
2022/04/23 06:19:37;;;;;;;44.10;24.25;;;;;;;5.44;72.54;97840.31;5085935;28;20081;-82
2022/04/23 06:22:03;;;;;;;42.92;23.85;;;;;;;5.54;72.26;97832.09;5089084;28;20031;-81
2022/04/23 06:24:28;;;;;;;37.10;22.38;;;;;;;5.63;72.01;97838.59;5088826;28;20024;-80
2022/04/23 06:26:54;;;;;;;34.85;21.13;;;;;;;5.71;71.26;97834.47;5088635;28;20031;-81
2022/04/23 06:29:19;;;;;;;33.58;20.67;;;;;;;5.85;71.50;97834.69;5090942;28;20043;-80
2022/04/23 06:31:44;;;;;;;39.97;22.40;;;;;;;5.93;71.35;97834.06;5087303;28;20024;-81
2022/04/23 06:34:10;;;;;;;33.55;20.85;;;;;;;6.00;70.80;97830.22;5088323;28;20028;-81
2022/04/23 06:36:36;;;;;;;35.70;22.60;;;;;;;6.09;71.22;97826.69;5087194;28;20052;-81
2022/04/23 06:39:03;;;;;;;38.08;21.50;;;;;;;6.18;70.97;97826.06;5090683;28;20043;-81
2022/04/23 06:41:28;;;;;;;43.20;23.20;;;;;;;6.25;70.23;97830.09;5091361;28;20035;-82
2022/04/23 06:43:54;;;;;;;34.40;20.00;;;;;;;6.34;70.25;97819.41;5090312;28;20417;-81
2022/04/23 06:46:19;;;;;;;36.60;21.20;;;;;;;6.43;70.15;97825.06;5089307;28;20101;-81
2022/04/23 06:48:45;;;;;;;30.80;17.67;;;;;;;6.51;69.79;97829.09;5086623;28;20106;-81
2022/04/23 06:51:10;;;;;;;26.85;15.80;;;;;;;6.59;69.64;97828.47;5089756;28;20034;-81
2022/04/23 06:53:36;;;;;;;28.15;15.98;;;;;;;6.68;69.67;97820.50;5090607;28;20032;-81
2022/04/23 06:56:03;;;;;;;26.40;16.33;;;;;;;6.79;69.75;97819.28;5088693;28;20119;-81
2022/04/23 06:58:29;;;;;;;25.40;14.93;;;;;;;6.91;69.73;97818.94;5091287;28;20065;-81
2022/04/23 07:00:54;;;;;;;25.48;16.23;;;;;;;7.04;68.85;97819.31;5091380;28;20036;-81
2022/04/23 07:03:20;;;;;;;26.63;16.77;;;;;;;7.11;68.92;97822.53;5092815;28;20040;-81
2022/04/23 07:05:46;;;;;;;26.35;16.52;;;;;;;7.19;68.40;97818.34;5090604;28;20028;-81
2022/04/23 07:08:12;;;;;;;23.05;14.95;;;;;;;7.30;68.32;97826.16;5088319;28;20028;-81
2022/04/23 07:10:37;;;;;;;22.70;14.10;;;;;;;7.41;67.55;97826.84;5089218;28;20024;-81
2022/04/23 07:13:03;;;;;;;26.02;16.00;;;;;;;7.50;67.49;97820.75;5090345;28;20032;-81
2022/04/23 07:15:29;;;;;;;25.25;15.88;;;;;;;7.58;67.12;97818.16;5085415;28;20024;-81
2022/04/23 07:17:55;;;;;;;25.13;15.05;;;;;;;7.68;66.17;97821.88;5091266;28;20599;-81
2022/04/23 07:20:21;;;;;;;26.45;15.95;;;;;;;7.73;65.71;97821.81;5090017;28;20457;-79
2022/04/23 07:25:33;;;;;;;27.42;16.75;;;;;;;7.83;65.46;97813.47;5089510;28;20035;-81
2022/04/23 07:27:59;;;;;;;23.00;14.38;;;;;;;7.91;66.07;97812.00;5088381;28;20450;-81
2022/04/23 07:30:28;;;;;;;23.10;14.75;;;;;;;8.00;65.88;97812.16;5093532;28;20115;-80
2022/04/23 07:32:54;;;;;;;28.75;17.58;;;;;;;8.09;65.54;97810.38;5094437;28;20077;-80
2022/04/23 07:38:20;;;;;;;22.13;13.00;;;;;;;8.41;65.56;97810.72;5089602;28;20066;-81
2022/04/23 07:40:48;;;;;;;18.00;11.48;;;;;;;8.54;65.10;97803.72;5091049;28;20051;-80
2022/04/23 07:43:14;;;;;;;21.70;11.95;;;;;;;8.66;64.73;97811.44;5092420;28;20032;-80
2022/04/23 07:45:42;;;;;;;16.50;10.98;;;;;;;8.76;64.53;97803.88;5092529;28;20226;-80
2022/04/23 07:48:09;;;;;;;16.58;7.82;;;;;;;8.85;63.59;97803.19;5094368;28;20021;-81
2022/04/23 07:50:36;;;;;;;11.25;7.25;;;;;;;8.90;62.76;97805.84;5094526;28;20461;-79
2022/04/23 07:53:02;;;;;;;11.75;7.10;;;;;;;8.94;61.02;97799.44;5096636;28;20031;-80
2022/04/23 07:55:38;;;;;;;12.50;7.75;;;;;;;9.01;62.23;97798.25;5096160;28;20028;-80
2022/04/23 07:58:05;;;;;;;10.15;7.47;;;;;;;9.12;62.68;97798.84;5095553;28;20024;-80
2022/04/23 08:00:31;;;;;;;12.07;8.10;;;;;;;9.19;62.08;97802.81;5093379;28;20074;-81
2022/04/23 08:02:57;;;;;;;13.93;8.63;;;;;;;9.31;62.24;97799.59;5095876;28;20443;-80
2022/04/23 08:05:23;;;;;;;42.90;17.08;;;;;;;9.39;62.16;97809.00;5095856;28;20119;-81
2022/04/23 08:07:49;;;;;;;19.10;10.93;;;;;;;9.51;62.29;97806.56;5095318;28;20044;-81
2022/04/23 08:10:14;;;;;;;15.23;8.77;;;;;;;9.57;61.79;97790.03;5096705;28;20020;-81
2022/04/23 08:12:40;;;;;;;16.30;9.70;;;;;;;9.67;61.86;97792.53;5098635;28;20035;-80
2022/04/23 08:15:06;;;;;;;13.60;8.93;;;;;;;9.69;60.50;97790.31;5097988;28;20036;-81
2022/04/23 08:17:32;;;;;;;13.23;8.98;;;;;;;9.78;59.57;97788.47;5095428;28;20077;-81
2022/04/23 08:20:01;;;;;;;11.82;7.75;;;;;;;9.88;58.66;97794.84;5092992;28;20028;-81
2022/04/23 08:22:26;;;;;;;12.52;8.23;;;;;;;9.95;57.54;97795.25;5092365;28;20032;-81
2022/04/23 08:24:52;;;;;;;14.75;7.70;;;;;;;10.02;58.77;97787.38;5092716;28;20028;-81
2022/04/23 08:27:17;;;;;;;10.63;7.50;;;;;;;10.13;58.74;97786.03;5093603;28;20480;-81
2022/04/23 08:32:26;;;;;;;13.70;8.23;;;;;;;10.32;58.80;97781.50;5092881;28;20086;-82
2022/04/23 08:34:53;;;;;;;13.02;7.57;;;;;;;10.36;58.56;97780.59;5088917;28;20033;-82
2022/04/23 08:37:19;;;;;;;10.88;7.47;;;;;;;10.51;59.19;97778.59;5092750;28;20141;-82
2022/04/23 08:39:47;;;;;;;11.95;8.57;;;;;;;10.69;59.15;97774.84;5089428;28;20115;-82
2022/04/23 08:42:15;;;;;;;22.40;11.85;;;;;;;10.87;59.43;97769.44;5090606;28;20460;-81
2022/04/23 08:44:41;;;;;;;12.48;8.15;;;;;;;10.95;58.73;97765.16;5090459;28;20059;-81
2022/04/23 08:47:08;;;;;;;13.27;7.85;;;;;;;11.01;57.41;97772.91;5092556;28;20501;-81
2022/04/23 08:49:39;;;;;;;10.50;6.53;;;;;;;10.93;57.41;97761.91;5091072;28;20024;-82
2022/04/23 08:52:35;;;;;;;14.27;7.45;;;;;;;10.81;57.22;97760.56;5095268;28;20026;-81
2022/04/23 08:55:03;;;;;;;9.65;6.10;;;;;;;10.74;56.38;97771.16;5092590;28;20089;-82
2022/04/23 08:57:29;;;;;;;10.07;6.13;;;;;;;10.81;57.44;97765.22;5091366;28;20031;-82
2022/04/23 08:59:56;;;;;;;10.75;6.38;;;;;;;10.85;56.52;97750.56;5092471;28;20094;-82
2022/04/23 09:02:23;;;;;;;11.05;7.05;;;;;;;10.88;56.11;97762.84;5090814;28;20028;-82
2022/04/23 09:04:50;;;;;;;10.85;6.88;;;;;;;10.95;56.06;97752.22;5093068;28;20089;-81
2022/04/23 09:07:23;;;;;;;11.60;6.38;;;;;;;11.01;56.32;97756.44;5092605;28;20032;-81
2022/04/23 09:09:50;;;;;;;10.38;6.13;;;;;;;11.03;55.62;97753.38;5089913;28;20057;-82
2022/04/23 09:12:19;;;;;;;18.95;8.80;;;;;;;11.19;55.71;97758.44;5093426;28;20024;-82
2022/04/23 09:14:45;;;;;;;12.73;7.90;;;;;;;11.32;55.59;97758.34;5094186;28;20055;-81
2022/04/23 09:25:37;;;;;;;13.18;7.68;;;;;;;11.33;53.70;97745.44;5090750;28;20046;-83
2022/04/23 09:28:32;;;;;;;9.48;6.38;;;;;;;11.40;55.21;97750.44;5091499;28;20024;-81
2022/04/23 09:30:59;;;;;;;10.75;6.28;;;;;;;11.51;53.14;97748.19;5068868;28;20040;-82
2022/04/23 09:33:41;;;;;;;11.85;5.75;;;;;;;11.60;53.69;97743.53;5089322;28;20409;-82
2022/04/23 09:36:07;;;;;;;8.63;5.63;;;;;;;11.74;52.02;97744.22;5094460;28;20024;-82
2022/04/23 09:38:32;;;;;;;8.07;5.85;;;;;;;11.77;51.92;97738.09;5093673;28;20024;-81
2022/04/23 09:41:15;;;;;;;8.60;5.78;;;;;;;11.80;51.72;97744.06;5092096;28;20028;-81
2022/04/23 09:43:41;;;;;;;11.52;7.32;;;;;;;11.89;53.02;97744.84;5093709;28;20036;-82
2022/04/23 09:46:08;;;;;;;9.07;5.72;;;;;;;11.97;52.88;97744.06;5093830;28;20723;-80
2022/04/23 09:48:34;;;;;;;5.95;4.80;;;;;;;12.01;52.32;97741.53;5092954;28;20104;-81
2022/04/23 09:51:00;;;;;;;7.72;5.90;;;;;;;12.06;51.32;97747.66;5092004;28;20024;-81
2022/04/23 09:53:27;;;;;;;8.13;5.43;;;;;;;12.22;51.97;97744.41;5093613;28;20080;-81
2022/04/23 09:56:05;;;;;;;6.35;5.28;;;;;;;12.39;52.42;97746.34;5092770;28;20115;-82
2022/04/23 09:58:33;;;;;;;7.72;5.18;;;;;;;12.58;51.39;97739.66;5092340;28;20628;-81
2022/04/23 10:00:59;;;;;;;6.78;5.00;;;;;;;12.82;51.77;97741.84;5092191;28;20024;-81
2022/04/23 10:03:28;;;;;;;6.57;5.13;;;;;;;13.18;52.47;97739.78;5090260;28;20138;-83
2022/04/23 10:05:54;;;;;;;7.95;5.60;;;;;;;13.50;51.35;97734.78;5087792;28;20028;-81
2022/04/23 10:08:30;;;;;;;6.75;5.75;;;;;;;13.87;49.81;97739.69;5091418;28;20032;-80
2022/04/23 10:11:12;;;;;;;7.32;5.50;;;;;;;14.09;49.99;97736.63;5091314;28;20024;-81
2022/04/23 10:13:44;;;;;;;7.78;6.30;;;;;;;14.20;49.37;97736.22;5088383;28;20473;-81
2022/04/23 10:16:10;;;;;;;7.10;5.75;;;;;;;14.27;49.17;97741.97;5088731;28;20430;-81
2022/04/23 10:18:39;;;;;;;7.53;5.68;;;;;;;14.18;46.91;97744.81;5090371;28;20031;-80
2022/04/23 10:21:10;;;;;;;9.63;5.53;;;;;;;14.05;48.20;97737.66;5091228;28;20020;-79
2022/04/23 10:23:50;;;;;;;7.35;6.38;;;;;;;13.84;48.37;97733.75;5089780;28;20036;-80
2022/04/23 10:27:10;;;;;;;9.02;6.20;;;;;;;13.88;47.55;97733.88;5088573;28;20153;-80
2022/04/23 10:29:36;;;;;;;7.15;5.47;;;;;;;13.86;47.24;97741.66;5027804;28;20029;-80
2022/04/23 10:32:10;;;;;;;8.02;5.57;;;;;;;13.71;47.77;97743.06;5027776;28;20515;-80
2022/04/23 10:34:37;;;;;;;8.68;6.32;;;;;;;13.72;48.75;97738.34;5058743;28;20477;-80
2022/04/23 10:37:25;;;;;;;8.50;6.20;;;;;;;13.86;48.95;97747.19;5083718;28;20017;-80
2022/04/23 10:39:51;;;;;;;8.63;7.13;;;;;;;14.06;46.08;97742.00;5089313;28;20036;-79
2022/04/23 10:42:17;;;;;;;7.47;5.57;;;;;;;14.21;47.61;97738.63;5088973;28;20103;-80
2022/04/23 10:44:44;;;;;;;7.85;6.50;;;;;;;14.35;46.00;97740.28;5087625;28;20039;-81
2022/04/23 10:47:15;;;;;;;6.75;6.15;;;;;;;14.49;44.99;97751.03;5089569;28;20424;-80
2022/04/23 10:49:41;;;;;;;6.47;5.78;;;;;;;14.50;43.85;97744.38;5088270;28;20474;-84
2022/04/23 10:52:07;;;;;;;6.72;5.18;;;;;;;14.48;42.67;97749.41;5088162;28;20026;-79
2022/04/23 10:54:45;;;;;;;6.20;5.60;;;;;;;14.38;44.14;97740.41;5089762;28;20035;-78
2022/04/23 10:57:13;;;;;;;7.28;6.50;;;;;;;14.28;43.62;97738.88;5087828;28;20556;-83
2022/04/23 10:59:48;;;;;;;7.82;6.45;;;;;;;14.23;44.16;97746.56;5090301;28;20492;-81
2022/04/23 11:02:19;;;;;;;8.93;7.72;;;;;;;14.18;45.93;97749.53;5090226;28;20067;-81
2022/04/23 11:13:27;;;;;;;7.95;6.18;;;;;;;14.59;45.13;97742.34;5092713;28;20043;-80
2022/04/23 11:16:06;;;;;;;19.85;6.70;;;;;;;14.68;43.98;97736.72;5093030;28;20027;-80
2022/04/23 11:18:33;;;;;;;7.60;6.32;;;;;;;14.96;45.30;97731.41;5092010;28;20031;-79
2022/04/23 11:21:23;;;;;;;7.55;6.10;;;;;;;15.26;44.60;97741.44;5092778;28;20445;-80
2022/04/23 11:23:49;;;;;;;7.82;6.65;;;;;;;15.08;42.53;97744.41;5092337;28;20520;-75
2022/04/23 11:26:17;;;;;;;6.93;6.30;;;;;;;14.90;42.61;97743.81;5093745;28;20039;-76
2022/04/23 11:28:44;;;;;;;7.93;7.13;;;;;;;14.81;42.50;97732.88;5093252;28;20032;-77
2022/04/23 11:31:15;;;;;;;10.68;7.15;;;;;;;14.77;43.34;97731.13;5093136;28;20055;-77
2022/04/23 11:33:55;;;;;;;8.60;5.85;;;;;;;14.77;44.03;97736.63;5094169;28;20020;-78
2022/04/23 11:36:30;;;;;;;7.45;6.50;;;;;;;14.72;43.69;97743.19;5094145;28;20020;-77
2022/04/23 11:38:57;;;;;;;9.02;6.88;;;;;;;14.74;43.69;97738.13;5094126;28;20032;-77
2022/04/23 11:41:33;;;;;;;8.00;7.20;;;;;;;14.87;44.94;97734.25;5095006;28;20035;-77
2022/04/23 11:44:14;;;;;;;7.80;6.93;;;;;;;15.00;44.36;97728.75;5091176;28;20038;-77
2022/04/23 11:46:50;;;;;;;7.25;6.55;;;;;;;15.08;43.87;97727.84;5093850;28;20044;-76
2022/04/23 11:49:30;;;;;;;7.95;5.65;;;;;;;15.34;45.11;97726.69;5094390;28;20028;-77
2022/04/23 11:52:12;;;;;;;6.82;5.20;;;;;;;15.67;44.35;97722.97;5094080;28;20478;-77
2022/04/23 11:54:40;;;;;;;8.25;6.20;;;;;;;15.91;44.25;97724.88;5093336;28;20024;-76